sensor_id;sensor_type;location;lat;lon;timestamp;P1;durP1;ratioP1;P2;durP2;ratioP2
20411;SDS011;10365;52.578;8.138;2022-12-29T00:02:12;6.97;;;6.22;;
20411;SDS011;10365;52.578;8.138;2022-12-29T00:04:37;7.00;;;6.03;;
20411;SDS011;10365;52.578;8.138;2022-12-29T00:07:03;6.88;;;5.80;;
20411;SDS011;10365;52.578;8.138;2022-12-29T00:09:32;6.28;;;5.68;;
20411;SDS011;10365;52.578;8.138;2022-12-29T00:11:57;6.28;;;5.40;;
20411;SDS011;10365;52.578;8.138;2022-12-29T00:14:23;7.07;;;5.00;;
20411;SDS011;10365;52.578;8.138;2022-12-29T00:17:07;8.85;;;5.80;;
20411;SDS011;10365;52.578;8.138;2022-12-29T00:19:32;8.73;;;5.32;;
20411;SDS011;10365;52.578;8.138;2022-12-29T00:22:16;6.10;;;5.28;;
20411;SDS011;10365;52.578;8.138;2022-12-29T00:25:01;7.07;;;5.45;;
20411;SDS011;10365;52.578;8.138;2022-12-29T00:27:30;5.88;;;5.28;;
20411;SDS011;10365;52.578;8.138;2022-12-29T00:30:18;6.50;;;5.40;;
20411;SDS011;10365;52.578;8.138;2022-12-29T00:35:55;7.40;;;5.38;;
20411;SDS011;10365;52.578;8.138;2022-12-29T00:38:21;6.43;;;5.55;;
20411;SDS011;10365;52.578;8.138;2022-12-29T00:41:05;6.65;;;5.70;;
20411;SDS011;10365;52.578;8.138;2022-12-29T00:43:49;6.45;;;5.38;;
20411;SDS011;10365;52.578;8.138;2022-12-29T00:46:30;6.60;;;5.90;;
20411;SDS011;10365;52.578;8.138;2022-12-29T00:48:55;5.63;;;5.03;;
20411;SDS011;10365;52.578;8.138;2022-12-29T00:51:39;6.28;;;5.68;;
20411;SDS011;10365;52.578;8.138;2022-12-29T00:54:05;5.90;;;5.30;;
20411;SDS011;10365;52.578;8.138;2022-12-29T00:56:30;7.40;;;6.13;;
20411;SDS011;10365;52.578;8.138;2022-12-29T00:58:59;5.60;;;4.85;;
20411;SDS011;10365;52.578;8.138;2022-12-29T01:01:24;6.00;;;5.18;;
20411;SDS011;10365;52.578;8.138;2022-12-29T01:03:50;6.22;;;5.15;;
20411;SDS011;10365;52.578;8.138;2022-12-29T01:06:15;6.30;;;5.13;;
20411;SDS011;10365;52.578;8.138;2022-12-29T01:08:40;5.93;;;4.88;;
20411;SDS011;10365;52.578;8.138;2022-12-29T01:13:32;5.15;;;4.65;;
20411;SDS011;10365;52.578;8.138;2022-12-29T01:15:57;5.60;;;4.88;;
20411;SDS011;10365;52.578;8.138;2022-12-29T01:18:23;4.97;;;4.32;;
20411;SDS011;10365;52.578;8.138;2022-12-29T01:20:50;6.03;;;4.65;;
20411;SDS011;10365;52.578;8.138;2022-12-29T01:23:15;4.95;;;4.45;;
20411;SDS011;10365;52.578;8.138;2022-12-29T01:25:41;6.53;;;4.38;;
20411;SDS011;10365;52.578;8.138;2022-12-29T01:28:07;6.03;;;4.63;;
20411;SDS011;10365;52.578;8.138;2022-12-29T01:30:37;5.72;;;4.80;;
20411;SDS011;10365;52.578;8.138;2022-12-29T01:33:02;4.63;;;4.07;;
20411;SDS011;10365;52.578;8.138;2022-12-29T01:35:28;5.13;;;4.63;;
20411;SDS011;10365;52.578;8.138;2022-12-29T01:37:53;6.00;;;4.82;;
20411;SDS011;10365;52.578;8.138;2022-12-29T01:40:19;4.72;;;4.15;;
20411;SDS011;10365;52.578;8.138;2022-12-29T01:42:44;5.13;;;4.43;;
20411;SDS011;10365;52.578;8.138;2022-12-29T01:45:13;4.43;;;4.03;;
20411;SDS011;10365;52.578;8.138;2022-12-29T01:47:41;4.78;;;4.30;;
20411;SDS011;10365;52.578;8.138;2022-12-29T01:50:08;5.15;;;4.43;;
20411;SDS011;10365;52.578;8.138;2022-12-29T01:52:35;4.65;;;3.60;;
20411;SDS011;10365;52.578;8.138;2022-12-29T01:55:02;5.43;;;4.20;;
20411;SDS011;10365;52.578;8.138;2022-12-29T01:57:29;5.03;;;4.13;;
20411;SDS011;10365;52.578;8.138;2022-12-29T02:00:08;6.93;;;3.63;;
20411;SDS011;10365;52.578;8.138;2022-12-29T02:02:41;3.45;;;3.10;;
20411;SDS011;10365;52.578;8.138;2022-12-29T02:05:10;6.38;;;3.78;;
20411;SDS011;10365;52.578;8.138;2022-12-29T02:07:36;3.00;;;2.70;;
20411;SDS011;10365;52.578;8.138;2022-12-29T02:10:02;3.67;;;2.88;;
20411;SDS011;10365;52.578;8.138;2022-12-29T02:12:28;2.58;;;2.38;;
20411;SDS011;10365;52.578;8.138;2022-12-29T02:14:56;2.85;;;2.55;;
20411;SDS011;10365;52.578;8.138;2022-12-29T02:28:16;2.22;;;1.55;;
20411;SDS011;10365;52.578;8.138;2022-12-29T02:41:02;4.22;;;2.58;;
20411;SDS011;10365;52.578;8.138;2022-12-29T02:45:57;6.03;;;3.40;;
20411;SDS011;10365;52.578;8.138;2022-12-29T02:48:25;4.90;;;3.67;;
20411;SDS011;10365;52.578;8.138;2022-12-29T02:51:01;5.32;;;4.18;;
20411;SDS011;10365;52.578;8.138;2022-12-29T02:53:28;5.88;;;4.03;;
20411;SDS011;10365;52.578;8.138;2022-12-29T02:56:29;4.88;;;4.13;;
20411;SDS011;10365;52.578;8.138;2022-12-29T02:58:54;4.72;;;4.05;;
20411;SDS011;10365;52.578;8.138;2022-12-29T03:11:34;5.13;;;4.47;;
20411;SDS011;10365;52.578;8.138;2022-12-29T03:14:29;5.68;;;4.28;;
20411;SDS011;10365;52.578;8.138;2022-12-29T03:17:29;5.60;;;4.85;;
20411;SDS011;10365;52.578;8.138;2022-12-29T03:20:07;7.82;;;5.22;;
20411;SDS011;10365;52.578;8.138;2022-12-29T03:22:36;5.55;;;4.80;;
20411;SDS011;10365;52.578;8.138;2022-12-29T03:25:21;6.95;;;5.90;;
20411;SDS011;10365;52.578;8.138;2022-12-29T03:27:49;8.57;;;5.68;;
20411;SDS011;10365;52.578;8.138;2022-12-29T03:30:17;6.82;;;5.82;;
20411;SDS011;10365;52.578;8.138;2022-12-29T03:32:50;6.10;;;5.50;;
20411;SDS011;10365;52.578;8.138;2022-12-29T03:35:18;5.85;;;5.05;;
20411;SDS011;10365;52.578;8.138;2022-12-29T03:38:08;6.13;;;5.07;;
20411;SDS011;10365;52.578;8.138;2022-12-29T03:40:31;6.60;;;5.00;;
20411;SDS011;10365;52.578;8.138;2022-12-29T03:42:57;5.60;;;4.75;;
20411;SDS011;10365;52.578;8.138;2022-12-29T03:45:23;5.68;;;4.53;;
20411;SDS011;10365;52.578;8.138;2022-12-29T03:47:49;4.22;;;3.72;;
20411;SDS011;10365;52.578;8.138;2022-12-29T03:50:16;5.63;;;3.78;;
20411;SDS011;10365;52.578;8.138;2022-12-29T03:52:41;4.38;;;3.97;;
20411;SDS011;10365;52.578;8.138;2022-12-29T03:55:07;5.13;;;4.03;;
20411;SDS011;10365;52.578;8.138;2022-12-29T03:57:33;4.65;;;3.83;;
20411;SDS011;10365;52.578;8.138;2022-12-29T04:00:03;5.40;;;3.53;;
20411;SDS011;10365;52.578;8.138;2022-12-29T04:02:29;5.13;;;3.20;;
20411;SDS011;10365;52.578;8.138;2022-12-29T04:04:55;3.10;;;2.80;;
20411;SDS011;10365;52.578;8.138;2022-12-29T04:07:21;4.78;;;2.70;;
20411;SDS011;10365;52.578;8.138;2022-12-29T04:09:48;4.25;;;2.75;;
20411;SDS011;10365;52.578;8.138;2022-12-29T04:12:19;5.03;;;2.28;;
20411;SDS011;10365;52.578;8.138;2022-12-29T04:14:45;3.35;;;2.15;;
20411;SDS011;10365;52.578;8.138;2022-12-29T04:17:11;2.75;;;1.90;;
20411;SDS011;10365;52.578;8.138;2022-12-29T04:19:38;3.05;;;2.10;;
20411;SDS011;10365;52.578;8.138;2022-12-29T04:22:03;4.15;;;1.52;;
20411;SDS011;10365;52.578;8.138;2022-12-29T04:24:29;2.38;;;1.60;;
20411;SDS011;10365;52.578;8.138;2022-12-29T04:26:54;6.05;;;1.60;;
20411;SDS011;10365;52.578;8.138;2022-12-29T04:29:38;3.45;;;1.30;;
20411;SDS011;10365;52.578;8.138;2022-12-29T04:32:23;2.20;;;1.40;;
20411;SDS011;10365;52.578;8.138;2022-12-29T04:34:52;1.60;;;1.08;;
20411;SDS011;10365;52.578;8.138;2022-12-29T04:37:18;1.80;;;1.02;;
20411;SDS011;10365;52.578;8.138;2022-12-29T04:39:44;1.70;;;1.00;;
20411;SDS011;10365;52.578;8.138;2022-12-29T04:42:09;2.45;;;1.27;;
20411;SDS011;10365;52.578;8.138;2022-12-29T04:44:34;3.80;;;1.20;;
20411;SDS011;10365;52.578;8.138;2022-12-29T04:47:19;2.58;;;1.17;;
20411;SDS011;10365;52.578;8.138;2022-12-29T04:50:00;1.67;;;0.70;;
20411;SDS011;10365;52.578;8.138;2022-12-29T04:52:58;1.95;;;0.95;;
20411;SDS011;10365;52.578;8.138;2022-12-29T04:55:23;2.67;;;0.85;;
20411;SDS011;10365;52.578;8.138;2022-12-29T04:57:49;1.58;;;1.00;;
20411;SDS011;10365;52.578;8.138;2022-12-29T05:00:17;3.45;;;0.93;;
20411;SDS011;10365;52.578;8.138;2022-12-29T05:02:43;1.05;;;0.80;;
20411;SDS011;10365;52.578;8.138;2022-12-29T05:05:09;1.98;;;0.70;;
20411;SDS011;10365;52.578;8.138;2022-12-29T05:07:39;2.50;;;1.02;;
20411;SDS011;10365;52.578;8.138;2022-12-29T05:10:04;1.70;;;0.80;;
20411;SDS011;10365;52.578;8.138;2022-12-29T05:12:31;2.40;;;0.95;;
20411;SDS011;10365;52.578;8.138;2022-12-29T05:14:58;3.10;;;0.95;;
20411;SDS011;10365;52.578;8.138;2022-12-29T05:17:24;4.65;;;0.90;;
20411;SDS011;10365;52.578;8.138;2022-12-29T05:19:50;4.82;;;0.80;;
20411;SDS011;10365;52.578;8.138;2022-12-29T05:22:17;2.42;;;1.50;;
20411;SDS011;10365;52.578;8.138;2022-12-29T05:24:43;4.38;;;0.80;;
20411;SDS011;10365;52.578;8.138;2022-12-29T05:27:09;1.35;;;0.82;;
20411;SDS011;10365;52.578;8.138;2022-12-29T05:30:04;2.78;;;0.93;;
20411;SDS011;10365;52.578;8.138;2022-12-29T05:32:30;3.15;;;0.98;;
20411;SDS011;10365;52.578;8.138;2022-12-29T05:34:56;1.38;;;0.80;;
20411;SDS011;10365;52.578;8.138;2022-12-29T05:37:23;1.83;;;1.10;;
20411;SDS011;10365;52.578;8.138;2022-12-29T05:39:48;2.88;;;1.17;;
20411;SDS011;10365;52.578;8.138;2022-12-29T05:42:13;2.05;;;1.25;;
20411;SDS011;10365;52.578;8.138;2022-12-29T05:45:02;1.98;;;1.27;;
20411;SDS011;10365;52.578;8.138;2022-12-29T05:47:54;2.40;;;1.35;;
20411;SDS011;10365;52.578;8.138;2022-12-29T05:50:34;2.15;;;1.50;;
20411;SDS011;10365;52.578;8.138;2022-12-29T05:53:10;6.43;;;1.90;;
20411;SDS011;10365;52.578;8.138;2022-12-29T05:55:37;1.90;;;1.60;;
20411;SDS011;10365;52.578;8.138;2022-12-29T05:58:03;2.45;;;1.70;;
20411;SDS011;10365;52.578;8.138;2022-12-29T06:00:29;3.15;;;1.50;;
20411;SDS011;10365;52.578;8.138;2022-12-29T06:02:54;4.78;;;1.27;;
20411;SDS011;10365;52.578;8.138;2022-12-29T06:05:20;4.35;;;1.30;;
20411;SDS011;10365;52.578;8.138;2022-12-29T06:07:46;4.20;;;0.95;;
20411;SDS011;10365;52.578;8.138;2022-12-29T06:10:14;5.35;;;1.10;;
20411;SDS011;10365;52.578;8.138;2022-12-29T06:12:51;2.85;;;1.10;;
20411;SDS011;10365;52.578;8.138;2022-12-29T06:15:16;4.35;;;1.00;;
20411;SDS011;10365;52.578;8.138;2022-12-29T06:17:42;2.50;;;1.42;;
20411;SDS011;10365;52.578;8.138;2022-12-29T06:20:08;3.50;;;1.05;;
20411;SDS011;10365;52.578;8.138;2022-12-29T06:22:34;1.50;;;0.70;;
20411;SDS011;10365;52.578;8.138;2022-12-29T06:25:00;4.38;;;0.98;;
20411;SDS011;10365;52.578;8.138;2022-12-29T06:27:27;4.50;;;1.20;;
20411;SDS011;10365;52.578;8.138;2022-12-29T06:29:53;5.85;;;0.70;;
20411;SDS011;10365;52.578;8.138;2022-12-29T06:32:18;3.13;;;0.77;;
20411;SDS011;10365;52.578;8.138;2022-12-29T06:34:49;2.65;;;0.82;;
20411;SDS011;10365;52.578;8.138;2022-12-29T06:37:14;4.47;;;0.77;;
20411;SDS011;10365;52.578;8.138;2022-12-29T06:39:39;1.80;;;0.60;;
20411;SDS011;10365;52.578;8.138;2022-12-29T06:42:09;1.45;;;0.60;;
20411;SDS011;10365;52.578;8.138;2022-12-29T06:44:50;1.67;;;0.60;;
20411;SDS011;10365;52.578;8.138;2022-12-29T06:47:16;2.30;;;0.63;;
20411;SDS011;10365;52.578;8.138;2022-12-29T06:49:41;2.90;;;0.70;;
20411;SDS011;10365;52.578;8.138;2022-12-29T06:52:06;2.85;;;0.82;;
20411;SDS011;10365;52.578;8.138;2022-12-29T06:54:32;4.65;;;0.80;;
20411;SDS011;10365;52.578;8.138;2022-12-29T06:56:57;2.50;;;0.80;;
20411;SDS011;10365;52.578;8.138;2022-12-29T06:59:23;8.55;;;1.27;;
20411;SDS011;10365;52.578;8.138;2022-12-29T07:01:49;3.08;;;0.50;;
20411;SDS011;10365;52.578;8.138;2022-12-29T07:04:14;0.90;;;0.20;;
20411;SDS011;10365;52.578;8.138;2022-12-29T07:06:39;1.33;;;0.30;;
20411;SDS011;10365;52.578;8.138;2022-12-29T07:09:06;0.70;;;0.30;;
20411;SDS011;10365;52.578;8.138;2022-12-29T07:11:31;0.95;;;0.40;;
20411;SDS011;10365;52.578;8.138;2022-12-29T07:13:56;6.00;;;0.40;;
20411;SDS011;10365;52.578;8.138;2022-12-29T07:16:22;1.30;;;0.30;;
20411;SDS011;10365;52.578;8.138;2022-12-29T07:18:47;1.73;;;0.50;;
20411;SDS011;10365;52.578;8.138;2022-12-29T07:21:13;3.25;;;0.45;;
20411;SDS011;10365;52.578;8.138;2022-12-29T07:23:38;3.90;;;0.80;;
20411;SDS011;10365;52.578;8.138;2022-12-29T07:26:05;4.32;;;1.15;;
20411;SDS011;10365;52.578;8.138;2022-12-29T07:28:30;2.55;;;0.55;;
20411;SDS011;10365;52.578;8.138;2022-12-29T07:30:57;1.90;;;0.70;;
20411;SDS011;10365;52.578;8.138;2022-12-29T07:33:22;2.60;;;0.80;;
20411;SDS011;10365;52.578;8.138;2022-12-29T07:35:48;4.05;;;0.90;;
20411;SDS011;10365;52.578;8.138;2022-12-29T07:38:14;2.75;;;0.63;;
20411;SDS011;10365;52.578;8.138;2022-12-29T07:40:39;6.85;;;0.93;;
20411;SDS011;10365;52.578;8.138;2022-12-29T07:43:05;1.58;;;0.88;;
20411;SDS011;10365;52.578;8.138;2022-12-29T07:45:39;1.98;;;0.93;;
20411;SDS011;10365;52.578;8.138;2022-12-29T07:48:07;5.97;;;1.20;;
20411;SDS011;10365;52.578;8.138;2022-12-29T07:50:34;12.50;;;1.40;;
20411;SDS011;10365;52.578;8.138;2022-12-29T07:52:59;6.10;;;1.20;;
20411;SDS011;10365;52.578;8.138;2022-12-29T07:55:24;4.53;;;1.10;;
20411;SDS011;10365;52.578;8.138;2022-12-29T07:57:52;9.45;;;1.50;;
20411;SDS011;10365;52.578;8.138;2022-12-29T08:00:17;10.30;;;1.50;;
20411;SDS011;10365;52.578;8.138;2022-12-29T08:02:43;9.43;;;1.30;;
20411;SDS011;10365;52.578;8.138;2022-12-29T08:05:08;8.73;;;1.67;;
20411;SDS011;10365;52.578;8.138;2022-12-29T08:07:33;10.23;;;1.70;;
20411;SDS011;10365;52.578;8.138;2022-12-29T08:09:59;9.38;;;1.33;;
20411;SDS011;10365;52.578;8.138;2022-12-29T08:12:24;9.35;;;1.42;;
20411;SDS011;10365;52.578;8.138;2022-12-29T08:14:49;12.45;;;1.52;;
20411;SDS011;10365;52.578;8.138;2022-12-29T08:17:15;8.35;;;1.17;;
20411;SDS011;10365;52.578;8.138;2022-12-29T08:19:40;6.53;;;1.05;;
20411;SDS011;10365;52.578;8.138;2022-12-29T08:22:07;8.57;;;1.20;;
20411;SDS011;10365;52.578;8.138;2022-12-29T08:24:33;3.45;;;0.90;;
20411;SDS011;10365;52.578;8.138;2022-12-29T08:26:58;9.02;;;1.10;;
20411;SDS011;10365;52.578;8.138;2022-12-29T08:29:23;6.32;;;1.10;;
20411;SDS011;10365;52.578;8.138;2022-12-29T08:31:49;7.95;;;1.25;;
20411;SDS011;10365;52.578;8.138;2022-12-29T08:34:14;5.63;;;0.85;;
20411;SDS011;10365;52.578;8.138;2022-12-29T08:36:39;6.57;;;1.10;;
20411;SDS011;10365;52.578;8.138;2022-12-29T08:39:05;4.47;;;0.77;;
20411;SDS011;10365;52.578;8.138;2022-12-29T08:41:30;8.98;;;1.30;;
20411;SDS011;10365;52.578;8.138;2022-12-29T08:43:55;9.18;;;1.10;;
20411;SDS011;10365;52.578;8.138;2022-12-29T08:46:21;5.68;;;1.25;;
20411;SDS011;10365;52.578;8.138;2022-12-29T08:48:46;9.02;;;1.40;;
20411;SDS011;10365;52.578;8.138;2022-12-29T08:51:12;3.97;;;0.90;;
20411;SDS011;10365;52.578;8.138;2022-12-29T08:53:37;5.15;;;0.93;;
20411;SDS011;10365;52.578;8.138;2022-12-29T08:56:03;4.60;;;0.90;;
20411;SDS011;10365;52.578;8.138;2022-12-29T08:58:29;9.05;;;0.90;;
20411;SDS011;10365;52.578;8.138;2022-12-29T09:00:55;9.80;;;0.98;;
20411;SDS011;10365;52.578;8.138;2022-12-29T09:03:21;7.93;;;1.00;;
20411;SDS011;10365;52.578;8.138;2022-12-29T09:05:47;3.85;;;0.82;;
20411;SDS011;10365;52.578;8.138;2022-12-29T09:08:13;5.20;;;0.90;;
20411;SDS011;10365;52.578;8.138;2022-12-29T09:10:38;5.15;;;0.55;;
20411;SDS011;10365;52.578;8.138;2022-12-29T09:13:03;3.53;;;0.73;;
20411;SDS011;10365;52.578;8.138;2022-12-29T09:15:29;7.15;;;0.82;;
20411;SDS011;10365;52.578;8.138;2022-12-29T09:17:54;4.30;;;0.70;;
20411;SDS011;10365;52.578;8.138;2022-12-29T09:20:20;6.45;;;0.75;;
20411;SDS011;10365;52.578;8.138;2022-12-29T09:22:46;7.85;;;0.70;;
20411;SDS011;10365;52.578;8.138;2022-12-29T09:25:12;7.15;;;0.80;;
20411;SDS011;10365;52.578;8.138;2022-12-29T09:27:37;5.90;;;1.13;;
20411;SDS011;10365;52.578;8.138;2022-12-29T09:30:04;9.05;;;2.08;;
20411;SDS011;10365;52.578;8.138;2022-12-29T09:32:29;8.75;;;1.33;;
20411;SDS011;10365;52.578;8.138;2022-12-29T09:34:54;5.53;;;0.75;;
20411;SDS011;10365;52.578;8.138;2022-12-29T09:37:20;3.95;;;0.70;;
20411;SDS011;10365;52.578;8.138;2022-12-29T09:39:46;3.22;;;0.63;;
20411;SDS011;10365;52.578;8.138;2022-12-29T09:45:00;6.05;;;1.25;;
20411;SDS011;10365;52.578;8.138;2022-12-29T09:47:29;4.05;;;1.08;;
20411;SDS011;10365;52.578;8.138;2022-12-29T09:52:26;7.57;;;1.88;;
20411;SDS011;10365;52.578;8.138;2022-12-29T09:55:04;5.75;;;1.63;;
20411;SDS011;10365;52.578;8.138;2022-12-29T09:59:58;8.60;;;1.50;;
20411;SDS011;10365;52.578;8.138;2022-12-29T10:02:32;7.10;;;0.93;;
20411;SDS011;10365;52.578;8.138;2022-12-29T10:05:01;8.85;;;1.20;;
20411;SDS011;10365;52.578;8.138;2022-12-29T10:07:30;6.47;;;0.98;;
20411;SDS011;10365;52.578;8.138;2022-12-29T10:10:03;5.13;;;0.68;;
20411;SDS011;10365;52.578;8.138;2022-12-29T10:12:39;7.18;;;0.88;;
20411;SDS011;10365;52.578;8.138;2022-12-29T10:20:31;4.35;;;0.65;;
20411;SDS011;10365;52.578;8.138;2022-12-29T10:25:41;8.50;;;1.10;;
20411;SDS011;10365;52.578;8.138;2022-12-29T10:28:15;6.10;;;0.90;;
20411;SDS011;10365;52.578;8.138;2022-12-29T10:30:42;5.57;;;0.80;;
20411;SDS011;10365;52.578;8.138;2022-12-29T10:33:10;10.52;;;0.90;;
20411;SDS011;10365;52.578;8.138;2022-12-29T10:35:38;4.25;;;0.85;;
20411;SDS011;10365;52.578;8.138;2022-12-29T10:38:25;5.18;;;0.80;;
20411;SDS011;10365;52.578;8.138;2022-12-29T10:43:34;8.88;;;1.38;;
20411;SDS011;10365;52.578;8.138;2022-12-29T10:46:11;9.05;;;1.42;;
20411;SDS011;10365;52.578;8.138;2022-12-29T10:48:37;9.48;;;0.90;;
20411;SDS011;10365;52.578;8.138;2022-12-29T10:51:04;5.05;;;1.17;;
20411;SDS011;10365;52.578;8.138;2022-12-29T10:53:35;4.57;;;1.10;;
20411;SDS011;10365;52.578;8.138;2022-12-29T10:56:13;4.25;;;1.23;;
20411;SDS011;10365;52.578;8.138;2022-12-29T10:58:40;5.50;;;1.17;;
20411;SDS011;10365;52.578;8.138;2022-12-29T11:01:07;6.55;;;2.30;;
20411;SDS011;10365;52.578;8.138;2022-12-29T11:08:30;3.05;;;0.93;;
20411;SDS011;10365;52.578;8.138;2022-12-29T11:10:57;9.23;;;1.50;;
20411;SDS011;10365;52.578;8.138;2022-12-29T11:13:30;6.95;;;1.50;;
20411;SDS011;10365;52.578;8.138;2022-12-29T11:15:56;7.18;;;2.50;;
20411;SDS011;10365;52.578;8.138;2022-12-29T11:18:25;6.50;;;1.30;;
20411;SDS011;10365;52.578;8.138;2022-12-29T11:20:55;7.40;;;1.02;;
20411;SDS011;10365;52.578;8.138;2022-12-29T11:23:25;8.68;;;1.13;;
20411;SDS011;10365;52.578;8.138;2022-12-29T11:28:31;8.40;;;0.98;;
20411;SDS011;10365;52.578;8.138;2022-12-29T11:30:59;4.32;;;0.90;;
20411;SDS011;10365;52.578;8.138;2022-12-29T11:33:24;5.95;;;1.08;;
20411;SDS011;10365;52.578;8.138;2022-12-29T11:35:56;9.82;;;1.58;;
20411;SDS011;10365;52.578;8.138;2022-12-29T11:38:23;8.10;;;1.10;;
20411;SDS011;10365;52.578;8.138;2022-12-29T11:40:50;3.83;;;0.85;;
20411;SDS011;10365;52.578;8.138;2022-12-29T11:43:23;7.53;;;0.95;;
20411;SDS011;10365;52.578;8.138;2022-12-29T11:45:51;10.40;;;1.00;;
20411;SDS011;10365;52.578;8.138;2022-12-29T11:48:18;5.05;;;0.90;;
20411;SDS011;10365;52.578;8.138;2022-12-29T11:50:48;5.78;;;1.80;;
20411;SDS011;10365;52.578;8.138;2022-12-29T11:53:16;14.65;;;1.35;;
20411;SDS011;10365;52.578;8.138;2022-12-29T11:55:50;4.70;;;1.02;;
20411;SDS011;10365;52.578;8.138;2022-12-29T11:58:16;6.55;;;0.63;;
20411;SDS011;10365;52.578;8.138;2022-12-29T12:00:41;5.60;;;0.70;;
20411;SDS011;10365;52.578;8.138;2022-12-29T12:03:27;4.35;;;0.70;;
20411;SDS011;10365;52.578;8.138;2022-12-29T12:05:56;2.72;;;0.57;;
20411;SDS011;10365;52.578;8.138;2022-12-29T12:11:21;6.82;;;0.80;;
20411;SDS011;10365;52.578;8.138;2022-12-29T12:16:21;5.15;;;1.05;;
20411;SDS011;10365;52.578;8.138;2022-12-29T12:21:19;4.80;;;0.50;;
20411;SDS011;10365;52.578;8.138;2022-12-29T12:26:53;5.90;;;1.10;;
20411;SDS011;10365;52.578;8.138;2022-12-29T12:29:25;11.35;;;3.15;;
20411;SDS011;10365;52.578;8.138;2022-12-29T12:34:51;8.98;;;1.45;;
20411;SDS011;10365;52.578;8.138;2022-12-29T12:49:42;8.32;;;0.82;;
20411;SDS011;10365;52.578;8.138;2022-12-29T12:52:21;4.63;;;1.02;;
20411;SDS011;10365;52.578;8.138;2022-12-29T13:00:16;6.13;;;0.82;;
20411;SDS011;10365;52.578;8.138;2022-12-29T13:08:19;5.10;;;1.33;;
20411;SDS011;10365;52.578;8.138;2022-12-29T13:20:54;4.13;;;0.98;;
20411;SDS011;10365;52.578;8.138;2022-12-29T13:23:43;7.43;;;1.00;;
20411;SDS011;10365;52.578;8.138;2022-12-29T13:26:09;7.97;;;1.50;;
20411;SDS011;10365;52.578;8.138;2022-12-29T13:31:24;7.70;;;1.45;;
20411;SDS011;10365;52.578;8.138;2022-12-29T13:36:24;4.10;;;1.30;;
20411;SDS011;10365;52.578;8.138;2022-12-29T13:38:51;10.02;;;1.58;;
20411;SDS011;10365;52.578;8.138;2022-12-29T13:41:33;9.23;;;1.45;;
20411;SDS011;10365;52.578;8.138;2022-12-29T13:44:01;14.18;;;2.63;;
20411;SDS011;10365;52.578;8.138;2022-12-29T13:46:40;9.48;;;1.65;;
20411;SDS011;10365;52.578;8.138;2022-12-29T13:49:13;6.07;;;1.27;;
20411;SDS011;10365;52.578;8.138;2022-12-29T13:51:47;10.80;;;1.77;;
20411;SDS011;10365;52.578;8.138;2022-12-29T14:00:21;11.70;;;1.40;;
20411;SDS011;10365;52.578;8.138;2022-12-29T14:02:24;9.48;;;1.17;;
20411;SDS011;10365;52.578;8.138;2022-12-29T14:04:58;7.65;;;1.15;;
20411;SDS011;10365;52.578;8.138;2022-12-29T14:07:24;5.22;;;1.35;;
20411;SDS011;10365;52.578;8.138;2022-12-29T14:09:50;7.45;;;1.40;;
20411;SDS011;10365;52.578;8.138;2022-12-29T14:17:42;4.25;;;1.20;;
20411;SDS011;10365;52.578;8.138;2022-12-29T14:20:18;8.02;;;1.33;;
20411;SDS011;10365;52.578;8.138;2022-12-29T14:28:14;32.08;;;12.40;;
20411;SDS011;10365;52.578;8.138;2022-12-29T14:30:47;10.68;;;3.10;;
20411;SDS011;10365;52.578;8.138;2022-12-29T14:33:14;6.63;;;1.40;;
20411;SDS011;10365;52.578;8.138;2022-12-29T14:35:41;5.85;;;1.58;;
20411;SDS011;10365;52.578;8.138;2022-12-29T14:38:16;8.48;;;1.50;;
20411;SDS011;10365;52.578;8.138;2022-12-29T14:40:42;5.60;;;2.13;;
20411;SDS011;10365;52.578;8.138;2022-12-29T14:43:16;6.45;;;2.33;;
20411;SDS011;10365;52.578;8.138;2022-12-29T14:45:43;9.18;;;2.50;;
20411;SDS011;10365;52.578;8.138;2022-12-29T14:50:54;6.70;;;1.92;;
20411;SDS011;10365;52.578;8.138;2022-12-29T14:56:04;7.88;;;2.15;;
20411;SDS011;10365;52.578;8.138;2022-12-29T14:58:31;10.23;;;3.40;;
20411;SDS011;10365;52.578;8.138;2022-12-29T15:00:58;13.13;;;2.80;;
20411;SDS011;10365;52.578;8.138;2022-12-29T15:03:31;6.68;;;2.25;;
20411;SDS011;10365;52.578;8.138;2022-12-29T15:05:58;8.63;;;2.00;;
20411;SDS011;10365;52.578;8.138;2022-12-29T15:08:30;18.42;;;2.55;;
20411;SDS011;10365;52.578;8.138;2022-12-29T15:10:59;13.88;;;2.20;;
20411;SDS011;10365;52.578;8.138;2022-12-29T15:13:33;9.82;;;2.22;;
20411;SDS011;10365;52.578;8.138;2022-12-29T15:15:58;7.30;;;2.03;;
20411;SDS011;10365;52.578;8.138;2022-12-29T15:18:33;9.15;;;1.98;;
20411;SDS011;10365;52.578;8.138;2022-12-29T15:21:05;8.30;;;2.50;;
20411;SDS011;10365;52.578;8.138;2022-12-29T15:23:31;7.45;;;2.25;;
20411;SDS011;10365;52.578;8.138;2022-12-29T15:26:04;7.93;;;2.42;;
20411;SDS011;10365;52.578;8.138;2022-12-29T15:28:37;9.25;;;2.53;;
20411;SDS011;10365;52.578;8.138;2022-12-29T15:31:04;10.13;;;1.83;;
20411;SDS011;10365;52.578;8.138;2022-12-29T15:33:30;13.27;;;2.70;;
20411;SDS011;10365;52.578;8.138;2022-12-29T15:35:56;6.90;;;2.20;;
20411;SDS011;10365;52.578;8.138;2022-12-29T15:40:48;9.40;;;2.25;;
20411;SDS011;10365;52.578;8.138;2022-12-29T15:45:42;10.95;;;2.00;;
20411;SDS011;10365;52.578;8.138;2022-12-29T15:48:13;32.70;;;9.43;;
20411;SDS011;10365;52.578;8.138;2022-12-29T15:50:39;11.23;;;3.78;;
20411;SDS011;10365;52.578;8.138;2022-12-29T15:53:09;16.85;;;4.40;;
20411;SDS011;10365;52.578;8.138;2022-12-29T15:55:36;13.70;;;4.60;;
20411;SDS011;10365;52.578;8.138;2022-12-29T15:58:17;9.68;;;2.70;;
20411;SDS011;10365;52.578;8.138;2022-12-29T16:00:46;14.07;;;2.95;;
20411;SDS011;10365;52.578;8.138;2022-12-29T16:03:12;13.02;;;3.72;;
20411;SDS011;10365;52.578;8.138;2022-12-29T16:08:57;9.43;;;2.38;;
20411;SDS011;10365;52.578;8.138;2022-12-29T16:11:31;11.50;;;2.70;;
20411;SDS011;10365;52.578;8.138;2022-12-29T16:13:57;8.00;;;2.03;;
20411;SDS011;10365;52.578;8.138;2022-12-29T16:16:33;9.80;;;2.03;;
20411;SDS011;10365;52.578;8.138;2022-12-29T16:19:02;13.10;;;2.10;;
20411;SDS011;10365;52.578;8.138;2022-12-29T16:21:31;11.63;;;1.95;;
20411;SDS011;10365;52.578;8.138;2022-12-29T16:23:59;14.90;;;2.00;;
20411;SDS011;10365;52.578;8.138;2022-12-29T16:26:26;7.03;;;1.77;;
20411;SDS011;10365;52.578;8.138;2022-12-29T16:28:54;7.72;;;1.63;;
20411;SDS011;10365;52.578;8.138;2022-12-29T16:31:21;6.93;;;2.03;;
20411;SDS011;10365;52.578;8.138;2022-12-29T16:33:48;6.75;;;2.08;;
20411;SDS011;10365;52.578;8.138;2022-12-29T16:38:49;8.88;;;1.63;;
20411;SDS011;10365;52.578;8.138;2022-12-29T16:41:30;10.10;;;1.98;;
20411;SDS011;10365;52.578;8.138;2022-12-29T16:44:41;7.13;;;1.75;;
20411;SDS011;10365;52.578;8.138;2022-12-29T16:46:44;7.53;;;1.83;;
20411;SDS011;10365;52.578;8.138;2022-12-29T16:49:14;12.63;;;1.98;;
20411;SDS011;10365;52.578;8.138;2022-12-29T16:51:41;15.48;;;1.90;;
20411;SDS011;10365;52.578;8.138;2022-12-29T16:54:13;4.93;;;1.30;;
20411;SDS011;10365;52.578;8.138;2022-12-29T16:56:43;8.63;;;2.40;;
20411;SDS011;10365;52.578;8.138;2022-12-29T16:59:26;9.85;;;2.40;;
20411;SDS011;10365;52.578;8.138;2022-12-29T17:01:54;8.13;;;1.67;;
20411;SDS011;10365;52.578;8.138;2022-12-29T17:04:20;11.60;;;2.58;;
20411;SDS011;10365;52.578;8.138;2022-12-29T17:06:45;10.65;;;2.47;;
20411;SDS011;10365;52.578;8.138;2022-12-29T17:09:20;9.52;;;2.70;;
20411;SDS011;10365;52.578;8.138;2022-12-29T17:11:47;3.25;;;1.27;;
20411;SDS011;10365;52.578;8.138;2022-12-29T17:17:04;4.30;;;1.10;;
20411;SDS011;10365;52.578;8.138;2022-12-29T17:19:31;5.55;;;1.38;;
20411;SDS011;10365;52.578;8.138;2022-12-29T17:21:57;5.47;;;1.55;;
20411;SDS011;10365;52.578;8.138;2022-12-29T17:24:22;2.10;;;0.90;;
20411;SDS011;10365;52.578;8.138;2022-12-29T17:26:49;5.65;;;1.13;;
20411;SDS011;10365;52.578;8.138;2022-12-29T17:29:37;2.78;;;0.90;;
20411;SDS011;10365;52.578;8.138;2022-12-29T17:32:01;5.03;;;1.15;;